Piper Inness — WDC3984 — position and weather

sailwx.info

Track history (hours):
 
Tides and Currents Weather Stations Pressure Air Temp Water Temp Dewpoint Dewpoint Depression Visibility Wind Speed Wind Dir Waves Ship Positions

Piper Inness

Owner: Foss Maritime Co, Seattle, WA. More information available from US FCC via Universal Licensing System and Coast Guard Vessel Documentation Center.

Last reported at 2015-May-29 11:32 UTC. Time now 2015-May-29 12:23 UTC.
Position N 33°38' W 118°06'.

; draft 2 m.

Type: Other ship. MMSI: 367017440.

Date/timePositionNaut miles runAvg speedWind from/ knotsBaromVisibWave heightAir tempDewpointWater temp
2015-May-29 11:32N 33°38' W 118°06'0 0.1
2015-May-29 10:26N 33°37' W 118°06'0 0.1
2015-May-29 08:33N 33°37' W 118°06'0 0.5
2015-May-29 07:28N 33°37' W 118°05'0 0.1
2015-May-29 02:09N 33°36' W 118°06'2 2.5
2015-May-29 01:21N 33°38' W 118°06'2 1.9
2015-May-29 00:09N 33°40' W 118°07'6 9.5
2015-May-28 23:33N 33°44' W 118°12'2 2.0
2015-May-28 22:33N 33°46' W 118°13'0 0.0
2015-May-28 21:33N 33°46' W 118°13'0 0.0
2015-May-28 20:33N 33°46' W 118°13'0 0.0
2015-May-28 19:33N 33°46' W 118°13'0 0.0
2015-May-28 18:33N 33°46' W 118°13'0 0.2
2015-May-28 17:33N 33°46' W 118°13'26 7.8
2015-May-28 14:12N 33°20' W 118°09'6 8.8
2015-May-28 13:28N 33°16' W 118°04'1010.8
2015-May-28 12:33N 33°09' W 117°55'6 5.6
2015-May-28 11:33N 33°05' W 117°50'2 1.6
2015-May-28 10:33N 33°05' W 117°52'3 2.7
2015-May-28 09:33N 33°02' W 117°51'3 2.9
2015-May-28 08:32N 32°59' W 117°49'1 1.2
2015-May-28 07:33N 32°59' W 117°51'2 1.8
2015-May-28 06:33N 32°58' W 117°49'2 1.7
2015-May-28 05:33N 32°57' W 117°48'1 1.3
2015-May-28 04:33N 32°56' W 117°50'2 1.6
2015-May-28 03:33N 32°55' W 117°49'1 0.7
2015-May-28 02:33N 32°54' W 117°48'2 1.6
2015-May-28 01:33N 32°56' W 117°49'3 2.7
2015-May-28 00:33N 32°53' W 117°49'4 3.8
2015-May-27 23:33N 32°49' W 117°49'2 1.6
2015-May-27 22:33N 32°49' W 117°47'3 3.3
2015-May-27 21:34N 32°51' W 117°44'3 2.7
2015-May-27 20:33N 32°52' W 117°41'2 2.0
2015-May-27 19:33N 32°53' W 117°43'0 0.4
2015-May-27 18:34N 32°54' W 117°43'2 2.2
2015-May-27 17:34N 32°55' W 117°45'3 2.8
2015-May-27 16:34N 32°57' W 117°47'5 5.2
2015-May-27 15:34N 33°01' W 117°52'5 4.9
2015-May-27 14:33N 33°05' W 117°53'3 2.8
2015-May-27 13:33N 33°08' W 117°54'4 4.5
2015-May-27 12:33N 33°12' W 117°57'3516.5
2015-May-27 10:27N 33°44' W 118°12'2 2.2
2015-May-27 09:33N 33°46' W 118°13'0 0.2
2015-May-27 08:33N 33°46' W 118°13'3114.4
2015-May-27 06:26N 33°19' W 117°57'1516.7
2015-May-27 05:33N 33°06' W 117°49'2 2.0
2015-May-27 04:33N 33°04' W 117°47'0 0.3
2015-May-27 03:34N 33°04' W 117°47'1 0.7
2015-May-27 02:33N 33°04' W 117°48'0 0.4
2015-May-27 01:33N 33°04' W 117°48'1616.2
2015-May-27 00:32N 33°18' W 117°57'2914.4
2015-May-26 22:33N 33°44' W 118°12'2 2.2
2015-May-26 21:33N 33°46' W 118°13'1 0.6
2015-May-26 20:34N 33°46' W 118°13'3 2.7
2015-May-26 19:33N 33°44' W 118°10'3 3.1
2015-May-26 18:33N 33°46' W 118°13'1 0.6
2015-May-26 17:33N 33°46' W 118°13'0 0.0
2015-May-26 16:33N 33°46' W 118°13'0 0.0
2015-May-26 15:33N 33°46' W 118°13'0 0.0
2015-May-26 14:33N 33°46' W 118°13'0 0.0
2015-May-26 13:33N 33°46' W 118°13'0 0.0
2015-May-26 12:33N 33°46' W 118°13'0 0.0
2015-May-26 11:33N 33°46' W 118°13'0 0.0
2015-May-26 10:33N 33°46' W 118°13'0 0.0
2015-May-26 09:33N 33°46' W 118°13'0 0.0
2015-May-26 08:33N 33°46' W 118°13'0 0.0
2015-May-26 07:33N 33°46' W 118°13'0 0.0
2015-May-26 06:33N 33°46' W 118°13'0 0.0
2015-May-26 05:30N 33°46' W 118°13'0 0.0
2015-May-26 04:33N 33°46' W 118°13'0 0.0
2015-May-26 03:27N 33°46' W 118°13'0 0.0
2015-May-26 02:33N 33°46' W 118°13'0 0.0
2015-May-26 01:30N 33°46' W 118°13'0 0.0
2015-May-26 00:33N 33°46' W 118°13'0 0.0
2015-May-25 23:33N 33°46' W 118°13'0 0.0
2015-May-25 22:33N 33°46' W 118°13'0 0.0
2015-May-25 21:33N 33°46' W 118°13'0 0.0
2015-May-25 20:30N 33°46' W 118°13'0 0.0
2015-May-25 19:33N 33°46' W 118°13'5 3.4
2015-May-25 18:07N 33°42' W 118°10'2 3.4
2015-May-25 17:32N 33°44' W 118°10'0 0.4
2015-May-25 16:33N 33°44' W 118°10'2 2.0
2015-May-25 15:19N 33°44' W 118°13'2 2.3
2015-May-25 14:33N 33°46' W 118°13'0 0.0
2015-May-25 13:24N 33°46' W 118°13'0 0.0
2015-May-25 12:33N 33°46' W 118°13'0 0.0
2015-May-25 11:33N 33°46' W 118°13'0 0.0
2015-May-25 09:33N 33°46' W 118°13'0 0.0
2015-May-25 08:33N 33°46' W 118°13'0 0.0
2015-May-25 07:21N 33°46' W 118°13'0 0.0
2015-May-25 06:33N 33°46' W 118°13'0 0.0
2015-May-25 05:33N 33°46' W 118°13'0 0.0
2015-May-25 04:33N 33°46' W 118°13'0 0.0
2015-May-25 03:33N 33°46' W 118°13'0 0.0
2015-May-25 02:33N 33°46' W 118°13'0 0.0
2015-May-25 01:33N 33°46' W 118°13'0 0.0
2015-May-25 00:33N 33°46' W 118°13'0 0.0
2015-May-24 23:33N 33°46' W 118°13'0 0.0
2015-May-24 22:33N 33°46' W 118°13'3 3.1
2015-May-24 21:28N 33°44' W 118°10'0 0.0
2015-May-24 20:10N 33°44' W 118°10'2 0.7
2015-May-24 17:33N 33°42' W 118°10'2 0.6
2015-May-24 13:33N 33°44' W 118°12'3 2.5
2015-May-24 12:33N 33°46' W 118°13'0 0.0
2015-May-24 11:32N 33°46' W 118°13'0 0.0
2015-May-24 10:33N 33°46' W 118°13'0 0.0
2015-May-24 09:09N 33°46' W 118°13'0 0.0
2015-May-24 08:33N 33°46' W 118°13'0 0.0
2015-May-24 07:33N 33°46' W 118°13'0 0.0
2015-May-24 06:34N 33°46' W 118°13'0 0.0
2015-May-24 05:34N 33°46' W 118°13'0 0.0
2015-May-24 04:11N 33°46' W 118°13'0 0.0
2015-May-24 03:34N 33°46' W 118°13'0 0.0
2015-May-24 02:34N 33°46' W 118°13'0 0.0
2015-May-24 01:34N 33°46' W 118°13'0 0.0
2015-May-24 00:34N 33°46' W 118°13'0 0.0
2015-May-23 23:33N 33°46' W 118°13'0 0.0
2015-May-23 22:34N 33°46' W 118°13'0 0.0
2015-May-23 21:34N 33°46' W 118°13'0 0.0
2015-May-23 20:34N 33°46' W 118°13'0 0.0
2015-May-23 19:34N 33°46' W 118°13'4 1.2
2015-May-23 16:22N 33°44' W 118°16'3 4.1
2015-May-23 15:33N 33°46' W 118°13'1 0.0
2015-May-22 08:18N 33°46' W 118°13'2 2.4
2015-May-22 07:33N 33°44' W 118°13'3316.4
2015-May-22 05:32N 33°18' W 117°49'1111.3
2015-May-22 04:33N 33°08' W 117°42'6 6.0
2015-May-22 03:33N 33°08' W 117°49'3 2.6
2015-May-22 02:34N 33°05' W 117°51'0 0.5
2015-May-22 01:33N 33°05' W 117°50'0 0.2
2015-May-22 00:34N 33°05' W 117°50'1 1.0
2015-May-21 23:34N 33°04' W 117°49'2 1.6
2015-May-21 22:34N 33°03' W 117°49'2 1.7
2015-May-21 21:33N 33°01' W 117°48'2 1.9
2015-May-21 20:34N 32°59' W 117°48'2 2.5
2015-May-21 19:34N 32°57' W 117°47'1 0.7
2015-May-21 18:34N 32°58' W 117°47'4 3.7
2015-May-21 17:34N 32°57' W 117°43'2 2.4
2015-May-21 16:33N 32°57' W 117°46'1 0.8
2015-May-21 15:33N 32°58' W 117°46'2 1.9
2015-May-21 14:34N 32°58' W 117°48'3 2.6
2015-May-21 13:31N 32°57' W 117°51'3 3.0
2015-May-21 12:34N 32°56' W 117°47'2 2.4
2015-May-21 11:34N 32°57' W 117°50'1 1.1
2015-May-21 10:34N 32°58' W 117°51'1 0.7
2015-May-21 09:34N 32°59' W 117°51'1 0.7
2015-May-21 08:33N 32°59' W 117°50'3 3.4
2015-May-21 07:34N 33°02' W 117°52'4 4.4
2015-May-21 06:34N 33°06' W 117°54'4 4.1
2015-May-21 05:33N 33°09' W 117°57'1 1.2
2015-May-21 04:33N 33°10' W 117°57'3716.2
2015-May-21 02:15N 33°45' W 118°13'1 0.3
2015-May-20 23:33N 33°46' W 118°13'0 0.0
2015-May-20 22:33N 33°46' W 118°13'0 0.0
2015-May-20 21:33N 33°46' W 118°13'0 0.0
2015-May-20 20:33N 33°46' W 118°13'0 0.0
2015-May-20 19:33N 33°46' W 118°13'0 0.0
2015-May-20 18:33N 33°46' W 118°13'0 0.0
2015-May-20 17:33N 33°46' W 118°13'0 0.0
2015-May-20 16:33N 33°46' W 118°13'0 0.0
2015-May-20 15:33N 33°46' W 118°13'2 2.2
2015-May-20 14:31N 33°44' W 118°12'3417.2
2015-May-20 12:33N 33°12' W 117°58'9 9.0
2015-May-20 11:33N 33°04' W 117°55'0 0.3
2015-May-20 10:33N 33°04' W 117°55'0 0.4
2015-May-20 09:33N 33°04' W 117°54'2 2.1
2015-May-20 08:33N 33°02' W 117°52'1 1.2
2015-May-20 07:33N 33°01' W 117°52'1 0.9
2015-May-20 06:33N 33°00' W 117°51'2 2.3
2015-May-20 05:33N 32°59' W 117°49'2 2.3
2015-May-20 04:33N 32°58' W 117°46'2 2.3
2015-May-20 03:33N 32°58' W 117°44'1 0.8
2015-May-20 02:33N 32°58' W 117°44'0 0.4
2015-May-20 01:33N 32°58' W 117°44'2 2.1
2015-May-20 00:33N 32°60' W 117°46'2 1.9
2015-May-19 23:33N 33°01' W 117°47'1 0.7
2015-May-19 22:33N 33°02' W 117°47'1 0.9
2015-May-19 21:33N 33°03' W 117°47'1 0.5
2015-May-19 20:33N 33°03' W 117°48'3 2.5
2015-May-19 19:34N 33°03' W 117°51'1 0.8
2015-May-19 18:33N 33°03' W 117°50'1 1.0
2015-May-19 17:33N 33°03' W 117°51'4 3.8
2015-May-19 16:33N 33°06' W 117°53'3 3.0
2015-May-19 15:33N 33°09' W 117°53'6 6.3
2015-May-19 14:33N 33°12' W 117°60'3316.7
2015-May-19 12:33N 33°44' W 118°12'  
Track history (hours):
 
Tides and Currents Weather Stations Pressure Air Temp Water Temp Dewpoint Dewpoint Depression Visibility Wind Speed Wind Dir Waves Ship Positions

Piper Inness

Owner: Foss Maritime Co, Seattle, WA. More information available from US FCC via Universal Licensing System and Coast Guard Vessel Documentation Center.

Last reported at 2015-May-29 11:32 UTC. Time now 2015-May-29 12:23 UTC.
Position N 33°38' W 118°06'.

; draft 2 m.

Type: Other ship. MMSI: 367017440.

Date/timePositionNaut miles runAvg speedWind from/ knotsBaromVisibWave heightAir tempDewpointWater temp
2015-May-29 11:32N 33°38' W 118°06'0 0.1
2015-May-29 10:26N 33°37' W 118°06'0 0.1
2015-May-29 08:33N 33°37' W 118°06'0 0.5
2015-May-29 07:28N 33°37' W 118°05'0 0.1
2015-May-29 02:09N 33°36' W 118°06'2 2.5
2015-May-29 01:21N 33°38' W 118°06'2 1.9
2015-May-29 00:09N 33°40' W 118°07'6 9.5
2015-May-28 23:33N 33°44' W 118°12'2 2.0
2015-May-28 22:33N 33°46' W 118°13'0 0.0
2015-May-28 21:33N 33°46' W 118°13'0 0.0
2015-May-28 20:33N 33°46' W 118°13'0 0.0
2015-May-28 19:33N 33°46' W 118°13'0 0.0
2015-May-28 18:33N 33°46' W 118°13'0 0.2
2015-May-28 17:33N 33°46' W 118°13'26 7.8
2015-May-28 14:12N 33°20' W 118°09'6 8.8
2015-May-28 13:28N 33°16' W 118°04'1010.8
2015-May-28 12:33N 33°09' W 117°55'6 5.6
2015-May-28 11:33N 33°05' W 117°50'2 1.6
2015-May-28 10:33N 33°05' W 117°52'3 2.7
2015-May-28 09:33N 33°02' W 117°51'3 2.9
2015-May-28 08:32N 32°59' W 117°49'1 1.2
2015-May-28 07:33N 32°59' W 117°51'2 1.8
2015-May-28 06:33N 32°58' W 117°49'2 1.7
2015-May-28 05:33N 32°57' W 117°48'1 1.3
2015-May-28 04:33N 32°56' W 117°50'2 1.6
2015-May-28 03:33N 32°55' W 117°49'1 0.7
2015-May-28 02:33N 32°54' W 117°48'2 1.6
2015-May-28 01:33N 32°56' W 117°49'3 2.7
2015-May-28 00:33N 32°53' W 117°49'4 3.8
2015-May-27 23:33N 32°49' W 117°49'2 1.6
2015-May-27 22:33N 32°49' W 117°47'3 3.3
2015-May-27 21:34N 32°51' W 117°44'3 2.7
2015-May-27 20:33N 32°52' W 117°41'2 2.0
2015-May-27 19:33N 32°53' W 117°43'0 0.4
2015-May-27 18:34N 32°54' W 117°43'2 2.2
2015-May-27 17:34N 32°55' W 117°45'3 2.8
2015-May-27 16:34N 32°57' W 117°47'5 5.2
2015-May-27 15:34N 33°01' W 117°52'5 4.9
2015-May-27 14:33N 33°05' W 117°53'3 2.8
2015-May-27 13:33N 33°08' W 117°54'4 4.5
2015-May-27 12:33N 33°12' W 117°57'3516.5
2015-May-27 10:27N 33°44' W 118°12'2 2.2
2015-May-27 09:33N 33°46' W 118°13'0 0.2
2015-May-27 08:33N 33°46' W 118°13'3114.4
2015-May-27 06:26N 33°19' W 117°57'1516.7
2015-May-27 05:33N 33°06' W 117°49'2 2.0
2015-May-27 04:33N 33°04' W 117°47'0 0.3
2015-May-27 03:34N 33°04' W 117°47'1 0.7
2015-May-27 02:33N 33°04' W 117°48'0 0.4
2015-May-27 01:33N 33°04' W 117°48'1616.2
2015-May-27 00:32N 33°18' W 117°57'2914.4
2015-May-26 22:33N 33°44' W 118°12'2 2.2
2015-May-26 21:33N 33°46' W 118°13'1 0.6
2015-May-26 20:34N 33°46' W 118°13'3 2.7
2015-May-26 19:33N 33°44' W 118°10'3 3.1
2015-May-26 18:33N 33°46' W 118°13'1 0.6
2015-May-26 17:33N 33°46' W 118°13'0 0.0
2015-May-26 16:33N 33°46' W 118°13'0 0.0
2015-May-26 15:33N 33°46' W 118°13'0 0.0
2015-May-26 14:33N 33°46' W 118°13'0 0.0
2015-May-26 13:33N 33°46' W 118°13'0 0.0
2015-May-26 12:33N 33°46' W 118°13'0 0.0
2015-May-26 11:33N 33°46' W 118°13'0 0.0
2015-May-26 10:33N 33°46' W 118°13'0 0.0
2015-May-26 09:33N 33°46' W 118°13'0 0.0
2015-May-26 08:33N 33°46' W 118°13'0 0.0
2015-May-26 07:33N 33°46' W 118°13'0 0.0
2015-May-26 06:33N 33°46' W 118°13'0 0.0
2015-May-26 05:30N 33°46' W 118°13'0 0.0
2015-May-26 04:33N 33°46' W 118°13'0 0.0
2015-May-26 03:27N 33°46' W 118°13'0 0.0
2015-May-26 02:33N 33°46' W 118°13'0 0.0
2015-May-26 01:30N 33°46' W 118°13'0 0.0
2015-May-26 00:33N 33°46' W 118°13'0 0.0
2015-May-25 23:33N 33°46' W 118°13'0 0.0
2015-May-25 22:33N 33°46' W 118°13'0 0.0
2015-May-25 21:33N 33°46' W 118°13'0 0.0
2015-May-25 20:30N 33°46' W 118°13'0 0.0
2015-May-25 19:33N 33°46' W 118°13'5 3.4
2015-May-25 18:07N 33°42' W 118°10'2 3.4
2015-May-25 17:32N 33°44' W 118°10'0 0.4
2015-May-25 16:33N 33°44' W 118°10'2 2.0
2015-May-25 15:19N 33°44' W 118°13'2 2.3
2015-May-25 14:33N 33°46' W 118°13'0 0.0
2015-May-25 13:24N 33°46' W 118°13'0 0.0
2015-May-25 12:33N 33°46' W 118°13'0 0.0
2015-May-25 11:33N 33°46' W 118°13'0 0.0
2015-May-25 09:33N 33°46' W 118°13'0 0.0
2015-May-25 08:33N 33°46' W 118°13'0 0.0
2015-May-25 07:21N 33°46' W 118°13'0 0.0
2015-May-25 06:33N 33°46' W 118°13'0 0.0
2015-May-25 05:33N 33°46' W 118°13'0 0.0
2015-May-25 04:33N 33°46' W 118°13'0 0.0
2015-May-25 03:33N 33°46' W 118°13'0 0.0
2015-May-25 02:33N 33°46' W 118°13'0 0.0
2015-May-25 01:33N 33°46' W 118°13'0 0.0
2015-May-25 00:33N 33°46' W 118°13'0 0.0
2015-May-24 23:33N 33°46' W 118°13'0 0.0
2015-May-24 22:33N 33°46' W 118°13'3 3.1
2015-May-24 21:28N 33°44' W 118°10'0 0.0
2015-May-24 20:10N 33°44' W 118°10'2 0.7
2015-May-24 17:33N 33°42' W 118°10'2 0.6
2015-May-24 13:33N 33°44' W 118°12'3 2.5
2015-May-24 12:33N 33°46' W 118°13'0 0.0
2015-May-24 11:32N 33°46' W 118°13'0 0.0
2015-May-24 10:33N 33°46' W 118°13'0 0.0
2015-May-24 09:09N 33°46' W 118°13'0 0.0
2015-May-24 08:33N 33°46' W 118°13'0 0.0
2015-May-24 07:33N 33°46' W 118°13'0 0.0
2015-May-24 06:34N 33°46' W 118°13'0 0.0
2015-May-24 05:34N 33°46' W 118°13'0 0.0
2015-May-24 04:11N 33°46' W 118°13'0 0.0
2015-May-24 03:34N 33°46' W 118°13'0 0.0
2015-May-24 02:34N 33°46' W 118°13'0 0.0
2015-May-24 01:34N 33°46' W 118°13'0 0.0
2015-May-24 00:34N 33°46' W 118°13'0 0.0
2015-May-23 23:33N 33°46' W 118°13'0 0.0
2015-May-23 22:34N 33°46' W 118°13'0 0.0
2015-May-23 21:34N 33°46' W 118°13'0 0.0
2015-May-23 20:34N 33°46' W 118°13'0 0.0
2015-May-23 19:34N 33°46' W 118°13'4 1.2
2015-May-23 16:22N 33°44' W 118°16'3 4.1
2015-May-23 15:33N 33°46' W 118°13'1 0.0
2015-May-22 08:18N 33°46' W 118°13'2 2.4
2015-May-22 07:33N 33°44' W 118°13'3316.4
2015-May-22 05:32N 33°18' W 117°49'1111.3
2015-May-22 04:33N 33°08' W 117°42'6 6.0
2015-May-22 03:33N 33°08' W 117°49'3 2.6
2015-May-22 02:34N 33°05' W 117°51'0 0.5
2015-May-22 01:33N 33°05' W 117°50'0 0.2
2015-May-22 00:34N 33°05' W 117°50'1 1.0
2015-May-21 23:34N 33°04' W 117°49'2 1.6
2015-May-21 22:34N 33°03' W 117°49'2 1.7
2015-May-21 21:33N 33°01' W 117°48'2 1.9
2015-May-21 20:34N 32°59' W 117°48'2 2.5
2015-May-21 19:34N 32°57' W 117°47'1 0.7
2015-May-21 18:34N 32°58' W 117°47'4 3.7
2015-May-21 17:34N 32°57' W 117°43'2 2.4
2015-May-21 16:33N 32°57' W 117°46'1 0.8
2015-May-21 15:33N 32°58' W 117°46'2 1.9
2015-May-21 14:34N 32°58' W 117°48'3 2.6
2015-May-21 13:31N 32°57' W 117°51'3 3.0
2015-May-21 12:34N 32°56' W 117°47'2 2.4
2015-May-21 11:34N 32°57' W 117°50'1 1.1
2015-May-21 10:34N 32°58' W 117°51'1 0.7
2015-May-21 09:34N 32°59' W 117°51'1 0.7
2015-May-21 08:33N 32°59' W 117°50'3 3.4
2015-May-21 07:34N 33°02' W 117°52'4 4.4
2015-May-21 06:34N 33°06' W 117°54'4 4.1
2015-May-21 05:33N 33°09' W 117°57'1 1.2
2015-May-21 04:33N 33°10' W 117°57'3716.2
2015-May-21 02:15N 33°45' W 118°13'1 0.3
2015-May-20 23:33N 33°46' W 118°13'0 0.0
2015-May-20 22:33N 33°46' W 118°13'0 0.0
2015-May-20 21:33N 33°46' W 118°13'0 0.0
2015-May-20 20:33N 33°46' W 118°13'0 0.0
2015-May-20 19:33N 33°46' W 118°13'0 0.0
2015-May-20 18:33N 33°46' W 118°13'0 0.0
2015-May-20 17:33N 33°46' W 118°13'0 0.0
2015-May-20 16:33N 33°46' W 118°13'0 0.0
2015-May-20 15:33N 33°46' W 118°13'2 2.2
2015-May-20 14:31N 33°44' W 118°12'3417.2
2015-May-20 12:33N 33°12' W 117°58'9 9.0
2015-May-20 11:33N 33°04' W 117°55'0 0.3
2015-May-20 10:33N 33°04' W 117°55'0 0.4
2015-May-20 09:33N 33°04' W 117°54'2 2.1
2015-May-20 08:33N 33°02' W 117°52'1 1.2
2015-May-20 07:33N 33°01' W 117°52'1 0.9
2015-May-20 06:33N 33°00' W 117°51'2 2.3
2015-May-20 05:33N 32°59' W 117°49'2 2.3
2015-May-20 04:33N 32°58' W 117°46'2 2.3
2015-May-20 03:33N 32°58' W 117°44'1 0.8
2015-May-20 02:33N 32°58' W 117°44'0 0.4
2015-May-20 01:33N 32°58' W 117°44'2 2.1
2015-May-20 00:33N 32°60' W 117°46'2 1.9
2015-May-19 23:33N 33°01' W 117°47'1 0.7
2015-May-19 22:33N 33°02' W 117°47'1 0.9
2015-May-19 21:33N 33°03' W 117°47'1 0.5
2015-May-19 20:33N 33°03' W 117°48'3 2.5
2015-May-19 19:34N 33°03' W 117°51'1 0.8
2015-May-19 18:33N 33°03' W 117°50'1 1.0
2015-May-19 17:33N 33°03' W 117°51'4 3.8
2015-May-19 16:33N 33°06' W 117°53'3 3.0
2015-May-19 15:33N 33°09' W 117°53'6 6.3
2015-May-19 14:33N 33°12' W 117°60'3316.7
2015-May-19 12:33N 33°44' W 118°12'  

Dump ship's entire track history